Doddsville, Mississippi
Current Conditions -  °F | °C
As of 1:55 AM on Saturday 25 Oct 2014 (Local Time) from KRNV Reporting Station
Clear Clear  
Wind Chill: 53°   Ceiling: Unl
Heat Index: 53°   Visibility: 7mi
Dew Point: 52°   Wind: 3mph
Humidity: 98%   Direction: 230°SW
Pressure: 30.1"   Gusts: NA
Location:  33.66°N, 90.52°W
Report Text: KRNV 250655Z AUTO 23003KT 7SM CLR 11/11 A3010 RMK AO2 T01140111
Loading
Personal Weather Stations






























Interactive Weather Map
Tropical Storm Tracking
New forecast layout! Learn more

10-Day Weather Forecast

Advertisements
Track Severe Weather on mobile